sensor_id;sensor_type;location;lat;lon;timestamp;pressure;altitude;pressure_sealevel;temperature;humidity
16100;BME280;8154;50.830;12.082;2023-04-01T01:24:26;97628.66;;;22.29;36.63
16100;BME280;8154;50.830;12.082;2023-04-01T01:27:06;97624.72;;;22.43;36.54
16100;BME280;8154;50.830;12.082;2023-04-01T01:29:53;97627.91;;;22.52;36.15
16100;BME280;8154;50.830;12.082;2023-04-01T01:35:24;97628.31;;;22.37;36.54
16100;BME280;8154;50.830;12.082;2023-04-01T01:37:57;97623.34;;;22.29;36.50
16100;BME280;8154;50.830;12.082;2023-04-01T01:40:27;97621.84;;;22.33;36.59
16100;BME280;8154;50.830;12.082;2023-04-01T01:42:57;97621.50;;;22.41;36.42
16100;BME280;8154;50.830;12.082;2023-04-01T01:45:26;97618.25;;;22.39;36.45
16100;BME280;8154;50.830;12.082;2023-04-01T01:47:53;97619.09;;;22.51;36.34
16100;BME280;8154;50.830;12.082;2023-04-01T01:50:22;97623.38;;;22.52;36.24
16100;BME280;8154;50.830;12.082;2023-04-01T01:52:48;97624.88;;;22.60;36.32
16100;BME280;8154;50.830;12.082;2023-04-01T01:55:33;97620.34;;;22.60;36.08
16100;BME280;8154;50.830;12.082;2023-04-01T01:58:04;97622.47;;;22.58;36.15
16100;BME280;8154;50.830;12.082;2023-04-01T02:00:33;97626.59;;;22.43;36.47
16100;BME280;8154;50.830;12.082;2023-04-01T02:03:00;97629.59;;;22.35;36.59
16100;BME280;8154;50.830;12.082;2023-04-01T02:05:28;97625.78;;;22.42;36.39
16100;BME280;8154;50.830;12.082;2023-04-01T02:08:09;97623.25;;;22.47;36.39
16100;BME280;8154;50.830;12.082;2023-04-01T02:10:41;97620.94;;;22.51;36.30
16100;BME280;8154;50.830;12.082;2023-04-01T02:13:16;97616.31;;;22.58;36.21
16100;BME280;8154;50.830;12.082;2023-04-01T02:15:47;97621.16;;;22.38;36.67
16100;BME280;8154;50.830;12.082;2023-04-01T02:18:15;97627.53;;;22.25;36.68
16100;BME280;8154;50.830;12.082;2023-04-01T02:20:44;97624.06;;;22.36;36.70
16100;BME280;8154;50.830;12.082;2023-04-01T02:23:10;97614.19;;;22.37;36.48
16100;BME280;8154;50.830;12.082;2023-04-01T02:25:38;97615.72;;;22.44;36.42
16100;BME280;8154;50.830;12.082;2023-04-01T02:28:06;97616.44;;;22.51;36.26
16100;BME280;8154;50.830;12.082;2023-04-01T02:30:35;97621.50;;;22.41;36.50
16100;BME280;8154;50.830;12.082;2023-04-01T02:33:03;97625.53;;;22.32;36.65
16100;BME280;8154;50.830;12.082;2023-04-01T02:35:30;97618.38;;;22.44;36.48
16100;BME280;8154;50.830;12.082;2023-04-01T02:37:56;97629.94;;;22.50;36.34
16100;BME280;8154;50.830;12.082;2023-04-01T02:40:22;97627.66;;;22.53;36.20
16100;BME280;8154;50.830;12.082;2023-04-01T02:42:48;97631.47;;;22.57;36.20
16100;BME280;8154;50.830;12.082;2023-04-01T02:45:15;97629.38;;;22.36;36.44
16100;BME280;8154;50.830;12.082;2023-04-01T02:47:41;97634.81;;;22.30;36.69
16100;BME280;8154;50.830;12.082;2023-04-01T02:50:07;97638.97;;;22.26;36.74
16100;BME280;8154;50.830;12.082;2023-04-01T02:52:34;97641.88;;;22.36;36.69
16100;BME280;8154;50.830;12.082;2023-04-01T02:55:00;97641.28;;;22.45;36.31
16100;BME280;8154;50.830;12.082;2023-04-01T02:57:27;97633.22;;;22.52;36.21
16100;BME280;8154;50.830;12.082;2023-04-01T02:59:52;97633.78;;;22.42;36.64
16100;BME280;8154;50.830;12.082;2023-04-01T03:02:19;97640.81;;;22.37;36.69
16100;BME280;8154;50.830;12.082;2023-04-01T03:04:45;97648.13;;;22.41;36.43
16100;BME280;8154;50.830;12.082;2023-04-01T03:07:11;97648.00;;;22.48;36.36
16100;BME280;8154;50.830;12.082;2023-04-01T03:09:37;97644.19;;;22.55;36.10
16100;BME280;8154;50.830;12.082;2023-04-01T03:12:06;97638.66;;;22.57;36.00
16100;BME280;8154;50.830;12.082;2023-04-01T03:14:32;97635.78;;;22.58;36.26
16100;BME280;8154;50.830;12.082;2023-04-01T03:16:57;97640.63;;;22.61;36.01
16100;BME280;8154;50.830;12.082;2023-04-01T03:19:24;97644.19;;;22.55;36.17
16100;BME280;8154;50.830;12.082;2023-04-01T03:21:50;97644.53;;;22.36;36.68
16100;BME280;8154;50.830;12.082;2023-04-01T03:24:16;97639.53;;;22.28;36.76
16100;BME280;8154;50.830;12.082;2023-04-01T05:25:57;97691.28;;;22.43;36.69
16100;BME280;8154;50.830;12.082;2023-04-01T05:28:23;97690.56;;;22.48;36.35
16100;BME280;8154;50.830;12.082;2023-04-01T05:30:49;97688.50;;;22.50;36.46
16100;BME280;8154;50.830;12.082;2023-04-01T05:33:15;97688.63;;;22.43;36.50
16100;BME280;8154;50.830;12.082;2023-04-01T05:35:41;97690.81;;;22.35;36.74
16100;BME280;8154;50.830;12.082;2023-04-01T05:38:08;97686.41;;;22.29;36.55
16100;BME280;8154;50.830;12.082;2023-04-01T05:40:33;97689.53;;;22.37;36.64
16100;BME280;8154;50.830;12.082;2023-04-01T05:43:03;97698.78;;;22.46;36.45
16100;BME280;8154;50.830;12.082;2023-04-01T05:45:29;97695.66;;;22.49;36.46
16100;BME280;8154;50.830;12.082;2023-04-01T05:47:56;97694.22;;;22.53;36.30
16100;BME280;8154;50.830;12.082;2023-04-01T05:50:22;97693.53;;;22.58;36.21
16100;BME280;8154;50.830;12.082;2023-04-01T05:52:48;97700.22;;;22.60;36.15
16100;BME280;8154;50.830;12.082;2023-04-01T05:55:14;97703.47;;;22.62;36.20
16100;BME280;8154;50.830;12.082;2023-04-01T05:57:39;97704.41;;;22.56;36.36
16100;BME280;8154;50.830;12.082;2023-04-01T06:00:06;97702.75;;;22.44;36.53
16100;BME280;8154;50.830;12.082;2023-04-01T06:02:32;97705.03;;;22.40;36.72
16100;BME280;8154;50.830;12.082;2023-04-01T06:05:17;97706.56;;;22.36;36.69
16100;BME280;8154;50.830;12.082;2023-04-01T06:07:44;97712.34;;;22.33;36.72
16100;BME280;8154;50.830;12.082;2023-04-01T06:10:13;97709.31;;;22.30;36.93
16100;BME280;8154;50.830;12.082;2023-04-01T06:12:47;97713.03;;;22.29;36.92
16100;BME280;8154;50.830;12.082;2023-04-01T06:15:20;97714.28;;;22.26;36.91
16100;BME280;8154;50.830;12.082;2023-04-01T06:23:19;97718.22;;;22.24;37.01
16100;BME280;8154;50.830;12.082;2023-04-01T06:28:59;97719.72;;;22.20;37.15
16100;BME280;8154;50.830;12.082;2023-04-01T06:34:28;97726.44;;;22.22;37.21
16100;BME280;8154;50.830;12.082;2023-04-01T06:54:04;97722.41;;;22.31;37.08
16100;BME280;8154;50.830;12.082;2023-04-01T06:56:32;97726.34;;;22.29;37.07
16100;BME280;8154;50.830;12.082;2023-04-01T06:59:10;97722.25;;;22.26;37.16
16100;BME280;8154;50.830;12.082;2023-04-01T07:01:42;97724.38;;;22.24;37.11
16100;BME280;8154;50.830;12.082;2023-04-01T07:04:18;97729.91;;;22.23;37.08
16100;BME280;8154;50.830;12.082;2023-04-01T07:06:50;97721.13;;;22.22;37.14
16100;BME280;8154;50.830;12.082;2023-04-01T07:09:26;97726.06;;;22.19;37.20
16100;BME280;8154;50.830;12.082;2023-04-01T07:12:02;97727.25;;;22.23;37.14
16100;BME280;8154;50.830;12.082;2023-04-01T07:14:35;97729.56;;;22.19;37.45
16100;BME280;8154;50.830;12.082;2023-04-01T07:17:12;97731.16;;;22.20;37.25
16100;BME280;8154;50.830;12.082;2023-04-01T07:19:54;97735.00;;;22.24;37.12
16100;BME280;8154;50.830;12.082;2023-04-01T07:22:27;97737.22;;;22.27;37.09
16100;BME280;8154;50.830;12.082;2023-04-01T07:24:56;97736.75;;;22.30;36.99
16100;BME280;8154;50.830;12.082;2023-04-01T07:27:23;97733.63;;;22.33;36.80
16100;BME280;8154;50.830;12.082;2023-04-01T07:29:50;97733.41;;;22.35;36.85
16100;BME280;8154;50.830;12.082;2023-04-01T07:37:52;97736.84;;;22.24;37.15
16100;BME280;8154;50.830;12.082;2023-04-01T07:46:10;97741.72;;;22.27;37.15
16100;BME280;8154;50.830;12.082;2023-04-01T07:48:51;97746.22;;;22.26;37.08
16100;BME280;8154;50.830;12.082;2023-04-01T07:51:30;97746.22;;;22.26;37.21
16100;BME280;8154;50.830;12.082;2023-04-01T07:56:43;97740.19;;;22.31;37.06
16100;BME280;8154;50.830;12.082;2023-04-01T08:00:04;97747.16;;;22.32;37.06
16100;BME280;8154;50.830;12.082;2023-04-01T08:02:30;97752.25;;;22.33;37.09
16100;BME280;8154;50.830;12.082;2023-04-01T08:05:18;97744.03;;;22.35;36.97
16100;BME280;8154;50.830;12.082;2023-04-01T08:16:29;97753.28;;;22.32;37.14
16100;BME280;8154;50.830;12.082;2023-04-01T08:21:43;97759.44;;;22.33;37.13
16100;BME280;8154;50.830;12.082;2023-04-01T08:24:25;97756.75;;;22.33;37.12
16100;BME280;8154;50.830;12.082;2023-04-01T08:26:59;97746.72;;;22.35;37.13
16100;BME280;8154;50.830;12.082;2023-04-01T11:36:09;97805.41;;;22.40;37.01
16100;BME280;8154;50.830;12.082;2023-04-01T11:44:07;97805.72;;;22.43;37.02
16100;BME280;8154;50.830;12.082;2023-04-01T12:03:34;97818.59;;;22.46;36.79
16100;BME280;8154;50.830;12.082;2023-04-01T12:06:26;97813.84;;;22.48;36.83
16100;BME280;8154;50.830;12.082;2023-04-01T12:23:03;97824.50;;;22.48;37.03
16100;BME280;8154;50.830;12.082;2023-04-01T15:32:20;97891.66;;;22.50;36.78
16100;BME280;8154;50.830;12.082;2023-04-01T15:35:03;97899.25;;;22.47;37.00
16100;BME280;8154;50.830;12.082;2023-04-01T15:53:27;97919.47;;;22.54;36.72
16100;BME280;8154;50.830;12.082;2023-04-01T15:56:19;97919.91;;;22.51;36.89
16100;BME280;8154;50.830;12.082;2023-04-01T16:04:46;97920.28;;;22.55;36.85
16100;BME280;8154;50.830;12.082;2023-04-01T16:16:00;97935.72;;;22.46;36.83
16100;BME280;8154;50.830;12.082;2023-04-01T16:21:21;97931.22;;;22.47;36.82
16100;BME280;8154;50.830;12.082;2023-04-01T16:23:56;97935.47;;;22.48;36.80
16100;BME280;8154;50.830;12.082;2023-04-01T16:26:44;97938.75;;;22.50;36.80
16100;BME280;8154;50.830;12.082;2023-04-01T16:29:30;97935.72;;;22.46;36.73
16100;BME280;8154;50.830;12.082;2023-04-01T16:34:53;97948.97;;;22.53;36.70
16100;BME280;8154;50.830;12.082;2023-04-01T16:37:52;97948.16;;;22.52;36.83
16100;BME280;8154;50.830;12.082;2023-04-01T16:43:12;97961.53;;;22.46;36.75
16100;BME280;8154;50.830;12.082;2023-04-01T16:51:36;97973.34;;;22.50;36.90
16100;BME280;8154;50.830;12.082;2023-04-01T16:54:08;97963.97;;;22.47;37.02
16100;BME280;8154;50.830;12.082;2023-04-01T16:56:49;97977.28;;;22.47;36.82
16100;BME280;8154;50.830;12.082;2023-04-01T16:59:24;97981.78;;;22.47;36.85
16100;BME280;8154;50.830;12.082;2023-04-01T17:02:02;97981.41;;;22.43;36.94
16100;BME280;8154;50.830;12.082;2023-04-01T17:04:48;97989.56;;;22.48;36.88
16100;BME280;8154;50.830;12.082;2023-04-01T17:18:14;98006.88;;;22.39;37.02
16100;BME280;8154;50.830;12.082;2023-04-01T17:21:00;98012.19;;;22.39;37.13
16100;BME280;8154;50.830;12.082;2023-04-01T17:28:47;98017.06;;;22.42;36.95
16100;BME280;8154;50.830;12.082;2023-04-01T18:38:57;98110.91;;;22.38;37.09
16100;BME280;8154;50.830;12.082;2023-04-01T18:41:32;98106.59;;;22.37;37.15
16100;BME280;8154;50.830;12.082;2023-04-01T18:46:39;98112.91;;;22.42;36.91
16100;BME280;8154;50.830;12.082;2023-04-01T18:49:21;98129.59;;;22.49;36.89
16100;BME280;8154;50.830;12.082;2023-04-01T18:52:02;98127.56;;;22.51;36.84
16100;BME280;8154;50.830;12.082;2023-04-01T18:54:32;98127.59;;;22.45;36.84
16100;BME280;8154;50.830;12.082;2023-04-01T18:57:13;98130.03;;;22.46;36.82
16100;BME280;8154;50.830;12.082;2023-04-01T18:59:55;98129.25;;;22.46;36.81
16100;BME280;8154;50.830;12.082;2023-04-01T19:02:41;98144.63;;;22.44;37.04
16100;BME280;8154;50.830;12.082;2023-04-01T19:05:16;98146.69;;;22.42;37.05
16100;BME280;8154;50.830;12.082;2023-04-01T19:07:52;98153.66;;;22.43;36.90
16100;BME280;8154;50.830;12.082;2023-04-01T19:21:27;98159.91;;;22.55;36.65
16100;BME280;8154;50.830;12.082;2023-04-01T19:24:03;98162.34;;;22.56;36.65
16100;BME280;8154;50.830;12.082;2023-04-01T19:37:40;98173.53;;;22.40;37.14
16100;BME280;8154;50.830;12.082;2023-04-01T19:54:42;98191.47;;;22.51;36.79
16100;BME280;8154;50.830;12.082;2023-04-01T20:00:13;98197.19;;;22.55;36.73
16100;BME280;8154;50.830;12.082;2023-04-01T20:05:30;98204.97;;;22.50;36.83
16100;BME280;8154;50.830;12.082;2023-04-01T20:10:48;98205.69;;;22.39;37.01
16100;BME280;8154;50.830;12.082;2023-04-01T20:14:03;98217.53;;;22.43;37.05
16100;BME280;8154;50.830;12.082;2023-04-01T20:16:57;98217.75;;;22.41;37.07
16100;BME280;8154;50.830;12.082;2023-04-01T20:19:37;98225.75;;;22.41;37.18
16100;BME280;8154;50.830;12.082;2023-04-01T20:22:16;98231.50;;;22.38;37.04
16100;BME280;8154;50.830;12.082;2023-04-01T20:24:48;98232.63;;;22.49;36.76
16100;BME280;8154;50.830;12.082;2023-04-01T20:27:22;98239.41;;;22.51;36.79
16100;BME280;8154;50.830;12.082;2023-04-01T22:32:18;98369.44;;;22.48;37.04
16100;BME280;8154;50.830;12.082;2023-04-01T22:40:36;98376.19;;;22.50;36.86
16100;BME280;8154;50.830;12.082;2023-04-01T22:43:04;98375.97;;;22.58;36.70
16100;BME280;8154;50.830;12.082;2023-04-01T22:45:50;98373.47;;;22.63;36.72
16100;BME280;8154;50.830;12.082;2023-04-01T22:48:31;98386.13;;;22.68;36.57
16100;BME280;8154;50.830;12.082;2023-04-01T22:51:13;98391.34;;;22.56;36.75
16100;BME280;8154;50.830;12.082;2023-04-01T22:54:48;98394.97;;;22.62;36.57
16100;BME280;8154;50.830;12.082;2023-04-01T23:05:49;98406.91;;;22.46;37.01
16100;BME280;8154;50.830;12.082;2023-04-01T23:11:23;98421.06;;;22.47;37.17
16100;BME280;8154;50.830;12.082;2023-04-01T23:14:05;98422.47;;;22.49;36.85
16100;BME280;8154;50.830;12.082;2023-04-01T23:28:42;98446.72;;;22.72;36.48
16100;BME280;8154;50.830;12.082;2023-04-01T23:31:38;98452.41;;;22.51;36.95
